createdAt,value
2023-02-22T00:02:13.301Z,101320.78
2023-02-22T00:04:41.756Z,101326.22
2023-02-22T00:07:10.294Z,101323.69
2023-02-22T00:09:40.278Z,101326.47
2023-02-22T00:12:10.296Z,101325.97
2023-02-22T00:14:40.489Z,101323.31
2023-02-22T00:17:08.909Z,101314.56
2023-02-22T00:19:37.774Z,101315.53
2023-02-22T00:22:06.206Z,101304.88
2023-02-22T00:24:36.535Z,101304.41
2023-02-22T00:27:06.506Z,101302.09
2023-02-22T00:29:35.572Z,101293.72
2023-02-22T00:32:04.276Z,101281.63
2023-02-22T00:34:32.816Z,101281.72
2023-02-22T00:37:04.461Z,101278.22
2023-02-22T00:39:32.966Z,101287.53
2023-02-22T00:42:01.327Z,101276.88
2023-02-22T00:44:33.250Z,101272.38
2023-02-22T00:47:01.694Z,101268.75
2023-02-22T00:49:30.112Z,101255.69
2023-02-22T00:51:58.502Z,101260.78
2023-02-22T00:54:26.828Z,101278.09
2023-02-22T00:56:55.296Z,101280.38
2023-02-22T00:59:23.667Z,101282.69
2023-02-22T01:01:53.852Z,101287.06
2023-02-22T01:04:22.466Z,101283.31
2023-02-22T01:06:51.582Z,101281.03
2023-02-22T01:09:20.051Z,101272.16
2023-02-22T01:11:49.205Z,101280.16
2023-02-22T01:14:21.251Z,101272.16
2023-02-22T01:16:50.806Z,101264.41
2023-02-22T01:19:21.949Z,101249.00
2023-02-22T01:21:51.395Z,101249.50
2023-02-22T01:24:19.906Z,101259.44
2023-02-22T01:26:52.658Z,101259.78
2023-02-22T01:29:22.409Z,101269.97
2023-02-22T01:31:55.988Z,101284.41
2023-02-22T01:34:26.329Z,101284.03
2023-02-22T01:36:54.825Z,101305.38
2023-02-22T01:39:23.305Z,101298.81
2023-02-22T01:41:53.805Z,101294.22
2023-02-22T01:44:28.899Z,101257.84
2023-02-22T01:47:02.161Z,101289.00
2023-02-22T01:49:36.077Z,101287.91
2023-02-22T01:52:09.868Z,101291.31
2023-02-22T01:54:43.122Z,101294.34
2023-02-22T01:57:17.131Z,101293.75
2023-02-22T01:59:49.983Z,101302.09
2023-02-22T02:02:21.748Z,101292.03
2023-02-22T02:04:51.600Z,101286.59
2023-02-22T02:07:22.777Z,101280.28
2023-02-22T02:09:59.682Z,101281.13
2023-02-22T02:12:31.280Z,101281.25
2023-02-22T02:15:21.870Z,101269.63
2023-02-22T02:17:52.622Z,101272.28
2023-02-22T02:20:28.376Z,101229.53
2023-02-22T02:23:06.352Z,101250.81
2023-02-22T02:26:05.447Z,101262.34
2023-02-22T02:29:16.203Z,101264.16
2023-02-22T02:32:16.574Z,101256.03
2023-02-22T02:34:56.262Z,101256.88
2023-02-22T02:37:34.435Z,101254.47
2023-02-22T02:40:12.519Z,101234.34
2023-02-22T02:42:45.868Z,101236.53
2023-02-22T02:45:20.604Z,101234.69
2023-02-22T02:47:56.674Z,101237.38
2023-02-22T02:50:28.585Z,101250.47
2023-02-22T02:53:02.569Z,101245.72
2023-02-22T02:55:36.774Z,101246.94
2023-02-22T02:58:06.316Z,101243.66
2023-02-22T03:00:39.698Z,101241.34
2023-02-22T03:03:29.829Z,101228.38
2023-02-22T03:06:22.976Z,101231.91
2023-02-22T03:08:58.567Z,101239.66
2023-02-22T03:11:31.569Z,101231.28
2023-02-22T03:14:08.414Z,101228.25
2023-02-22T03:16:46.030Z,101229.81
2023-02-22T03:19:24.615Z,101229.09
2023-02-22T03:21:59.001Z,101227.41
2023-02-22T03:24:33.064Z,101224.59
2023-02-22T03:27:09.482Z,101227.03
2023-02-22T03:29:45.475Z,101228.31
2023-02-22T03:32:23.039Z,101234.13
2023-02-22T03:34:58.274Z,101222.13
2023-02-22T03:37:34.172Z,101229.13
2023-02-22T03:40:14.027Z,101229.25
2023-02-22T03:42:50.269Z,101232.91
2023-02-22T03:45:22.246Z,101240.06
2023-02-22T03:47:54.598Z,101231.09
2023-02-22T03:50:31.117Z,101234.22
2023-02-22T03:53:00.323Z,101225.97
2023-02-22T03:55:31.610Z,101230.91
2023-02-22T03:58:03.401Z,101228.81
2023-02-22T04:00:35.255Z,101221.53
2023-02-22T04:03:04.426Z,101227.84
2023-02-22T04:05:34.454Z,101216.19
2023-02-22T04:08:03.439Z,101221.66
2023-02-22T04:10:33.541Z,101218.84
2023-02-22T04:13:02.105Z,101222.25
2023-02-22T04:15:30.885Z,101221.41
2023-02-22T04:18:05.932Z,101223.22
2023-02-22T04:20:35.770Z,101223.81
2023-02-22T04:23:10.589Z,101225.63
2023-02-22T04:25:41.977Z,101228.44
2023-02-22T04:28:14.104Z,101226.03
2023-02-22T04:30:54.232Z,101227.72
2023-02-22T04:33:24.577Z,101222.13
2023-02-22T04:35:57.806Z,101225.63
2023-02-22T04:38:27.289Z,101224.91
2023-02-22T04:40:57.647Z,101229.16
2023-02-22T04:43:26.742Z,101231.69
2023-02-22T04:46:04.584Z,101236.19
2023-02-22T04:48:33.286Z,101208.97
2023-02-22T04:51:03.210Z,101232.41
2023-02-22T04:53:32.824Z,101224.69
2023-02-22T04:56:01.865Z,101230.03
2023-02-22T04:58:31.949Z,101225.97
2023-02-22T05:01:00.940Z,101212.56
2023-02-22T05:03:29.473Z,101193.81
2023-02-22T05:05:57.904Z,101208.19
2023-02-22T05:08:29.799Z,101217.28
2023-02-22T05:10:58.293Z,101216.19
2023-02-22T05:13:26.758Z,101214.97
2023-02-22T05:15:55.412Z,101213.72
2023-02-22T05:18:23.867Z,101213.22
2023-02-22T05:20:52.675Z,101220.00
2023-02-22T05:23:21.085Z,101213.69
2023-02-22T05:25:50.904Z,101219.75
2023-02-22T05:28:19.423Z,101213.69
2023-02-22T05:30:47.945Z,101197.56
2023-02-22T05:33:16.387Z,101225.78
2023-02-22T05:35:44.746Z,101212.28
2023-02-22T05:38:15.190Z,101214.84
2023-02-22T05:40:44.782Z,101207.78
2023-02-22T05:43:15.788Z,101201.19
2023-02-22T05:45:44.324Z,101211.72
2023-02-22T05:48:13.716Z,101216.91
2023-02-22T05:50:42.121Z,101208.06
2023-02-22T05:53:10.514Z,101210.16
2023-02-22T05:55:38.943Z,101213.94
2023-02-22T05:58:07.282Z,101213.22
2023-02-22T06:00:37.378Z,101202.19
2023-02-22T06:03:08.101Z,101215.50
2023-02-22T06:05:36.986Z,101217.91
2023-02-22T06:08:07.700Z,101219.75
2023-02-22T06:10:36.220Z,101225.09
2023-02-22T06:13:05.979Z,101215.25
2023-02-22T06:15:34.503Z,101225.50
2023-02-22T06:18:04.445Z,101226.97
2023-02-22T06:20:33.487Z,101225.00
2023-02-22T06:23:01.836Z,101208.78
2023-02-22T06:25:32.587Z,101226.56
2023-02-22T06:28:01.826Z,101229.25
2023-02-22T06:30:31.274Z,101225.38
2023-02-22T06:32:59.687Z,101223.44
2023-02-22T06:35:29.518Z,101237.91
2023-02-22T06:37:57.947Z,101245.31
2023-02-22T06:40:29.644Z,101239.00
2023-02-22T06:43:00.041Z,101243.25
2023-02-22T06:45:28.713Z,101247.47
2023-02-22T06:47:57.043Z,101249.44
2023-02-22T06:50:28.911Z,101247.47
2023-02-22T06:52:59.338Z,101249.06
2023-02-22T06:55:29.936Z,101251.97
2023-02-22T06:57:58.325Z,101253.41
2023-02-22T07:00:28.530Z,101255.97
2023-02-22T07:02:57.677Z,101254.25
2023-02-22T07:05:27.676Z,101250.75
2023-02-22T07:08:04.860Z,101269.19
2023-02-22T07:10:34.368Z,101265.66
2023-02-22T07:13:03.573Z,101264.94
2023-02-22T07:15:33.678Z,101252.81
2023-02-22T07:18:02.809Z,101271.22
2023-02-22T07:20:32.635Z,101264.78
2023-02-22T07:23:02.793Z,101266.19
2023-02-22T07:25:31.188Z,101267.03
2023-02-22T07:28:00.006Z,101261.69
2023-02-22T07:30:31.298Z,101266.75
2023-02-22T07:33:01.234Z,101261.28
2023-02-22T07:35:31.637Z,101265.53
2023-02-22T07:38:00.679Z,101275.25
2023-02-22T07:40:30.654Z,101279.47
2023-02-22T07:43:01.194Z,101270.50
2023-02-22T07:45:31.264Z,101278.63
2023-02-22T07:48:00.611Z,101264.88
2023-02-22T07:50:31.432Z,101269.59
2023-02-22T07:53:03.786Z,101266.34
2023-02-22T07:55:34.761Z,101266.06
2023-02-22T07:58:06.014Z,101271.00
2023-02-22T08:00:36.694Z,101271.31
2023-02-22T08:03:07.274Z,101272.91
2023-02-22T08:05:37.339Z,101280.50
2023-02-22T08:08:07.027Z,101280.94
2023-02-22T08:10:37.531Z,101283.38
2023-02-22T08:13:06.941Z,101279.13
2023-02-22T08:15:37.714Z,101281.84
2023-02-22T08:18:09.233Z,101271.25
2023-02-22T08:20:38.477Z,101286.06
2023-02-22T08:23:07.757Z,101283.41
2023-02-22T08:25:37.859Z,101291.44
2023-02-22T08:28:08.958Z,101292.56
2023-02-22T08:30:40.577Z,101294.00
2023-02-22T08:33:09.331Z,101291.72
2023-02-22T08:35:37.993Z,101294.53
2023-02-22T08:38:07.816Z,101265.34
2023-02-22T08:40:39.487Z,101297.06
2023-02-22T08:43:07.908Z,101303.53
2023-02-22T08:45:36.464Z,101299.16
2023-02-22T08:48:05.320Z,101305.47
2023-02-22T08:50:35.673Z,101298.25
2023-02-22T08:53:06.448Z,101296.84
2023-02-22T08:55:39.706Z,101297.25
2023-02-22T08:58:10.540Z,101298.78
2023-02-22T09:00:40.588Z,101213.69
2023-02-22T09:03:13.379Z,101291.84
2023-02-22T09:05:42.457Z,101290.25
2023-02-22T09:08:11.248Z,101281.59
2023-02-22T09:10:41.196Z,101287.69
2023-02-22T09:13:09.774Z,101280.06
2023-02-22T09:15:39.784Z,101284.28
2023-02-22T09:18:09.881Z,101272.13
2023-02-22T09:20:38.364Z,101269.94
2023-02-22T09:23:09.863Z,101275.06
2023-02-22T09:25:38.910Z,101267.88
2023-02-22T09:28:09.295Z,101278.38
2023-02-22T09:30:38.379Z,101286.13
2023-02-22T09:33:10.326Z,101252.31
2023-02-22T09:35:42.561Z,101288.81
2023-02-22T09:38:11.972Z,101270.81
2023-02-22T09:40:46.704Z,101281.16
2023-02-22T09:43:35.849Z,101286.72
2023-02-22T09:46:19.522Z,101265.91
2023-02-22T09:48:59.400Z,101268.44
2023-02-22T09:51:32.166Z,101243.41
2023-02-22T09:54:05.421Z,101272.97
2023-02-22T09:56:35.327Z,101276.09
2023-02-22T09:59:09.111Z,101275.09
2023-02-22T10:01:44.481Z,101274.81
2023-02-22T10:04:20.610Z,101256.19
2023-02-22T10:07:06.234Z,101267.06
2023-02-22T10:09:42.792Z,101276.50
2023-02-22T10:12:16.325Z,101275.22
2023-02-22T10:15:01.419Z,101247.84
2023-02-22T10:17:37.659Z,101264.63
2023-02-22T10:20:22.338Z,101269.31
2023-02-22T10:23:03.666Z,101283.72
2023-02-22T10:25:37.146Z,101271.28
2023-02-22T10:28:12.535Z,101277.06
2023-02-22T10:30:44.824Z,101252.16
2023-02-22T10:33:18.536Z,101281.44
2023-02-22T10:35:47.384Z,101275.63
2023-02-22T10:38:20.378Z,101279.38
2023-02-22T10:40:54.888Z,101277.09
2023-02-22T10:43:24.219Z,101265.94
2023-02-22T10:45:56.494Z,101270.13
2023-02-22T10:48:27.822Z,101268.56
2023-02-22T10:51:02.189Z,101259.72
2023-02-22T10:53:31.329Z,101260.66
2023-02-22T10:56:13.287Z,101265.72
2023-02-22T10:58:48.041Z,101263.44
2023-02-22T11:01:27.929Z,101259.28
2023-02-22T11:04:02.041Z,101253.28
2023-02-22T11:06:31.785Z,101252.81
2023-02-22T11:09:10.473Z,101248.13
2023-02-22T11:11:40.032Z,101240.31
2023-02-22T11:14:10.950Z,101250.28
2023-02-22T11:16:44.525Z,101218.19
2023-02-22T11:19:23.300Z,101237.03
2023-02-22T11:21:54.380Z,101235.06
2023-02-22T11:24:30.378Z,101239.34
2023-02-22T11:27:03.111Z,101242.56
2023-02-22T11:29:34.407Z,101236.59
2023-02-22T11:32:14.764Z,101231.75
2023-02-22T11:34:44.004Z,101225.03
2023-02-22T11:37:29.840Z,101203.94
2023-02-22T11:40:25.008Z,101225.22
2023-02-22T11:43:12.422Z,101088.88
2023-02-22T11:45:49.843Z,101200.84
2023-02-22T11:48:26.596Z,101205.28
2023-02-22T11:51:05.017Z,101208.16
2023-02-22T11:53:48.835Z,101201.47
2023-02-22T11:56:35.760Z,101211.38
2023-02-22T11:59:16.947Z,101201.47
2023-02-22T12:01:51.661Z,101195.91
2023-02-22T12:05:04.494Z,101196.81
2023-02-22T12:07:54.332Z,101187.25
2023-02-22T12:10:34.212Z,101188.66
2023-02-22T12:13:18.884Z,101184.31
2023-02-22T12:15:57.099Z,101179.63
2023-02-22T12:18:34.212Z,101174.75
2023-02-22T12:21:06.124Z,101162.81
2023-02-22T12:23:45.018Z,101167.53
2023-02-22T12:26:20.169Z,101158.44
2023-02-22T12:28:59.472Z,101158.75
2023-02-22T12:31:34.438Z,101158.41
2023-02-22T12:34:12.097Z,101155.41
2023-02-22T12:36:46.819Z,101145.63
2023-02-22T12:39:52.191Z,101144.09
2023-02-22T12:42:29.386Z,101137.69
2023-02-22T12:45:05.761Z,101134.16
2023-02-22T12:47:41.821Z,101139.19
2023-02-22T12:50:19.856Z,101107.00
2023-02-22T12:52:53.193Z,101139.19
2023-02-22T12:55:26.375Z,101139.53
2023-02-22T12:58:03.553Z,101136.50
2023-02-22T13:00:39.348Z,101133.97
2023-02-22T13:03:30.762Z,101137.69
2023-02-22T13:06:21.706Z,101129.44
2023-02-22T13:09:00.589Z,101096.94
2023-02-22T13:11:38.252Z,101122.06
2023-02-22T13:14:34.583Z,101114.31
2023-02-22T13:17:07.820Z,101119.22
2023-02-22T13:19:44.376Z,101120.69
2023-02-22T13:22:20.438Z,101105.91
2023-02-22T13:25:02.780Z,101113.63
2023-02-22T13:27:39.725Z,101104.53
2023-02-22T13:30:19.636Z,101067.50
2023-02-22T13:33:04.279Z,101098.81
2023-02-22T13:35:47.476Z,101100.16
2023-02-22T13:38:51.353Z,101097.31
2023-02-22T13:41:40.459Z,101096.13
2023-02-22T13:44:47.908Z,101092.09
2023-02-22T13:47:55.523Z,101085.34
2023-02-22T13:50:40.071Z,101076.75
2023-02-22T13:53:15.789Z,101089.06
2023-02-22T13:55:49.635Z,101082.50
2023-02-22T13:58:18.205Z,101088.38
2023-02-22T14:00:50.642Z,101090.38
2023-02-22T14:03:41.241Z,101082.16
2023-02-22T14:06:11.882Z,101087.53
2023-02-22T14:08:46.903Z,101081.28
2023-02-22T14:11:56.846Z,101073.91
2023-02-22T14:14:26.061Z,101067.66
2023-02-22T14:17:28.502Z,101064.81
2023-02-22T14:20:21.401Z,101035.81
2023-02-22T14:22:53.143Z,101069.84
2023-02-22T14:25:45.962Z,101071.72
2023-02-22T14:28:38.252Z,101069.84
2023-02-22T14:31:17.422Z,101069.34
2023-02-22T14:34:04.040Z,101075.22
2023-02-22T14:36:36.497Z,101038.38
2023-02-22T14:39:12.427Z,101074.06
2023-02-22T14:41:47.998Z,101069.19
2023-02-22T14:44:22.056Z,101073.72
2023-02-22T14:46:52.997Z,101071.22
2023-02-22T14:49:28.590Z,101066.81
2023-02-22T14:52:04.008Z,101067.47
2023-02-22T14:54:39.997Z,101063.78
2023-02-22T14:57:15.934Z,101071.69
2023-02-22T15:00:01.291Z,101024.06
2023-02-22T15:02:40.836Z,101070.00
2023-02-22T15:05:14.860Z,101057.72
2023-02-22T15:07:52.976Z,101068.16
2023-02-22T15:10:26.096Z,101058.38
2023-02-22T15:13:09.994Z,101060.75
2023-02-22T15:15:41.056Z,101062.44
2023-02-22T15:18:23.465Z,101053.50
2023-02-22T15:20:57.787Z,101054.53
2023-02-22T15:23:33.452Z,101061.25
2023-02-22T15:26:03.245Z,101056.72
2023-02-22T15:28:32.401Z,101063.63
2023-02-22T15:31:26.025Z,101056.72
2023-02-22T15:33:55.605Z,101027.13
2023-02-22T15:36:28.538Z,101061.09
2023-02-22T15:38:59.664Z,101058.56
2023-02-22T15:41:31.734Z,101060.59
2023-02-22T15:44:17.793Z,101060.09
2023-02-22T15:46:51.213Z,101057.41
2023-02-22T15:49:24.525Z,101066.34
2023-02-22T15:52:07.057Z,101057.06
2023-02-22T15:54:43.984Z,101023.56
2023-02-22T15:57:17.430Z,101052.00
2023-02-22T15:59:49.803Z,101054.53
2023-02-22T16:02:33.009Z,101029.78
2023-02-22T16:05:06.825Z,101059.72
2023-02-22T16:07:42.023Z,101054.00
2023-02-22T16:10:23.784Z,101062.25
2023-02-22T16:13:05.087Z,101063.75
2023-02-22T16:15:33.981Z,101061.38
2023-02-22T16:18:27.299Z,101067.94
2023-02-22T16:21:04.211Z,101064.06
2023-02-22T16:23:44.988Z,101061.84
2023-02-22T16:26:30.087Z,101057.16
2023-02-22T16:29:00.509Z,101056.59
2023-02-22T16:31:33.709Z,101056.91
2023-02-22T16:34:03.709Z,101057.09
2023-02-22T16:36:41.336Z,101059.09
2023-02-22T16:39:20.233Z,101057.72
2023-02-22T16:41:51.445Z,101050.63
2023-02-22T16:44:21.510Z,101056.00
2023-02-22T16:46:49.969Z,101051.31
2023-02-22T16:49:18.550Z,101057.53
2023-02-22T16:51:49.062Z,101055.84
2023-02-22T16:54:24.436Z,101041.53
2023-02-22T16:56:53.196Z,101049.94
2023-02-22T16:59:21.619Z,101045.72
2023-02-22T17:01:50.356Z,101041.66
2023-02-22T17:04:22.169Z,101046.19
2023-02-22T17:06:50.551Z,101044.66
2023-02-22T17:09:21.793Z,101044.16
2023-02-22T17:11:52.726Z,101045.97
2023-02-22T17:14:27.127Z,101053.66
2023-02-22T17:16:55.697Z,101048.09
2023-02-22T17:19:25.793Z,101051.41
2023-02-22T17:21:54.257Z,101048.69
2023-02-22T17:24:29.425Z,101052.53
2023-02-22T17:26:59.888Z,101047.78
2023-02-22T17:29:29.168Z,101054.16
2023-02-22T17:31:57.950Z,101055.09
2023-02-22T17:34:26.426Z,101042.28
2023-02-22T17:36:56.490Z,101056.91
2023-02-22T17:39:27.491Z,101049.31
2023-02-22T17:41:57.974Z,101054.28
2023-02-22T17:44:26.485Z,101056.19
2023-02-22T17:46:55.838Z,101059.16
2023-02-22T17:49:24.323Z,101065.44
2023-02-22T17:51:53.331Z,101065.34
2023-02-22T17:54:23.221Z,101070.97
2023-02-22T17:56:53.094Z,101074.69
2023-02-22T17:59:21.540Z,101072.06
2023-02-22T18:01:52.849Z,101078.06
2023-02-22T18:04:21.348Z,101078.41
2023-02-22T18:06:49.859Z,101073.69
2023-02-22T18:09:20.382Z,101077.97
2023-02-22T18:11:48.943Z,101076.84
2023-02-22T18:14:18.890Z,101065.84
2023-02-22T18:16:48.503Z,101069.28
2023-02-22T18:19:21.013Z,101071.00
2023-02-22T18:21:50.836Z,101051.34
2023-02-22T18:24:19.274Z,101064.88
2023-02-22T18:26:47.749Z,101067.13
2023-02-22T18:29:16.088Z,101062.06
2023-02-22T18:31:46.651Z,101063.19
2023-02-22T18:34:15.932Z,101062.22
2023-02-22T18:36:44.426Z,101064.09
2023-02-22T18:39:13.153Z,101067.91
2023-02-22T18:41:41.618Z,101057.47
2023-02-22T18:44:11.260Z,101054.97
2023-02-22T18:46:39.682Z,101046.13
2023-02-22T18:49:12.937Z,101052.84
2023-02-22T18:51:43.751Z,101054.81
2023-02-22T18:54:13.809Z,101038.97
2023-02-22T18:56:42.269Z,101050.94
2023-02-22T18:59:12.360Z,101053.28
2023-02-22T19:01:49.022Z,101053.69
2023-02-22T19:04:19.964Z,101053.78
2023-02-22T19:06:49.924Z,101057.69
2023-02-22T19:09:18.414Z,101055.03
2023-02-22T19:11:48.470Z,101061.34
2023-02-22T19:14:17.475Z,101053.06
2023-02-22T19:16:46.580Z,101061.22
2023-02-22T19:19:20.868Z,101058.34
2023-02-22T19:21:51.869Z,101052.88
2023-02-22T19:24:20.824Z,101056.81
2023-02-22T19:26:50.951Z,101058.91
2023-02-22T19:29:22.351Z,101052.66
2023-02-22T19:31:51.903Z,101056.91
2023-02-22T19:34:23.942Z,101060.81
2023-02-22T19:36:53.792Z,101056.06
2023-02-22T19:41:52.649Z,101065.16
2023-02-22T19:44:22.307Z,101056.72
2023-02-22T19:46:52.321Z,101025.28
2023-02-22T19:49:20.702Z,101060.34
2023-02-22T19:51:49.652Z,101053.28
2023-02-22T19:54:21.675Z,101034.09
2023-02-22T19:56:52.025Z,101053.47
2023-02-22T19:59:23.233Z,101044.16
2023-02-22T20:01:55.192Z,101042.69
2023-02-22T20:04:24.655Z,101053.22
2023-02-22T20:06:55.353Z,101046.34
2023-02-22T20:09:30.167Z,101047.69
2023-02-22T20:11:58.664Z,101052.91
2023-02-22T20:14:28.742Z,101052.59
2023-02-22T20:16:59.501Z,101059.66
2023-02-22T20:19:28.733Z,101070.66
2023-02-22T20:21:57.929Z,101070.16
2023-02-22T20:24:28.198Z,101067.50
2023-02-22T20:26:58.361Z,101056.91
2023-02-22T20:29:30.674Z,101066.56
2023-02-22T20:32:00.252Z,101064.72
2023-02-22T20:34:31.495Z,101063.09
2023-02-22T20:37:00.595Z,101054.59
2023-02-22T20:39:30.646Z,101065.41
2023-02-22T20:42:00.676Z,101066.97
2023-02-22T20:44:29.351Z,101057.69
2023-02-22T20:46:58.881Z,101068.91
2023-02-22T20:49:27.573Z,101062.72
2023-02-22T20:51:56.014Z,101057.56
2023-02-22T20:54:24.506Z,101053.44
2023-02-22T20:56:54.649Z,101060.72
2023-02-22T20:59:23.128Z,101067.66
2023-02-22T21:01:53.319Z,101064.78
2023-02-22T21:04:22.893Z,101079.22
2023-02-22T21:06:52.152Z,101061.50
2023-02-22T21:09:22.003Z,101062.78
2023-02-22T21:11:50.598Z,101068.34
2023-02-22T21:14:20.459Z,101068.09
2023-02-22T21:16:51.359Z,101065.88
2023-02-22T21:19:25.615Z,101063.34
2023-02-22T21:21:57.107Z,101058.84
2023-02-22T21:24:27.677Z,101062.84
2023-02-22T21:26:59.243Z,101058.91
2023-02-22T21:29:30.327Z,101061.13
2023-02-22T21:31:58.940Z,101057.22
2023-02-22T21:34:27.435Z,101054.69
2023-02-22T21:36:56.975Z,101055.66
2023-02-22T21:39:28.690Z,101053.13
2023-02-22T21:42:00.674Z,101063.94
2023-02-22T21:44:31.088Z,101059.69
2023-02-22T21:46:59.472Z,101071.22
2023-02-22T21:49:29.108Z,101044.69
2023-02-22T21:51:57.816Z,101057.47
2023-02-22T21:54:28.114Z,101046.06
2023-02-22T21:56:56.817Z,101053.47
2023-02-22T21:59:25.198Z,101051.19
2023-02-22T22:01:56.762Z,101052.44
2023-02-22T22:04:27.892Z,101052.69
2023-02-22T22:06:57.928Z,101042.97
2023-02-22T22:09:29.268Z,101042.88
2023-02-22T22:11:59.404Z,101049.25
2023-02-22T22:14:28.711Z,101005.69
2023-02-22T22:17:01.527Z,101038.56
2023-02-22T22:19:33.773Z,101038.81
2023-02-22T22:22:02.881Z,101042.69
2023-02-22T22:24:32.122Z,101047.16
2023-02-22T22:27:03.888Z,101042.81
2023-02-22T22:29:34.571Z,101038.06
2023-02-22T22:32:06.194Z,101035.28
2023-02-22T22:34:38.105Z,101001.31
2023-02-22T22:37:06.747Z,101036.88
2023-02-22T22:39:35.219Z,101031.53
2023-02-22T22:42:03.715Z,101029.72
2023-02-22T22:44:42.295Z,101032.25
2023-02-22T22:47:13.854Z,101032.00
2023-02-22T22:49:42.865Z,101028.38
2023-02-22T22:52:13.992Z,101022.91
2023-02-22T22:54:43.393Z,101011.66
2023-02-22T22:57:12.436Z,101019.53
2023-02-22T22:59:40.975Z,101016.97
2023-02-22T23:02:16.642Z,101020.63
2023-02-22T23:04:59.245Z,101015.03
2023-02-22T23:07:31.061Z,101002.72
2023-02-22T23:09:59.430Z,101001.22
2023-02-22T23:12:31.636Z,101006.66
2023-02-22T23:14:59.998Z,101007.66
2023-02-22T23:17:41.178Z,101007.66
2023-02-22T23:20:12.629Z,100998.66
2023-02-22T23:22:46.938Z,100988.72
2023-02-22T23:25:15.992Z,100987.50
2023-02-22T23:27:44.331Z,100980.47
2023-02-22T23:30:15.127Z,100939.06
2023-02-22T23:32:43.810Z,100978.72
2023-02-22T23:35:14.401Z,100975.91
2023-02-22T23:37:43.246Z,100971.44
2023-02-22T23:40:17.112Z,100931.47
2023-02-22T23:42:49.868Z,100970.94
2023-02-22T23:45:23.798Z,100952.69
2023-02-22T23:47:54.981Z,100971.03
2023-02-22T23:50:26.792Z,100969.22
2023-02-22T23:52:59.691Z,100974.16
2023-02-22T23:55:31.661Z,100971.25
2023-02-22T23:58:00.577Z,100972.09
